createdAt,value
2022-12-31T00:00:31.226Z,94.4
2022-12-31T00:05:31.160Z,94.8
2022-12-31T00:10:31.201Z,94.2
2022-12-31T00:15:31.161Z,94.5
2022-12-31T00:20:31.154Z,94.9
2022-12-31T00:25:31.163Z,95.5
2022-12-31T00:30:31.179Z,96.2
2022-12-31T00:35:31.162Z,97.2
2022-12-31T00:40:31.211Z,98
2022-12-31T00:45:34.883Z,98.3
2022-12-31T00:50:31.168Z,98.2
2022-12-31T00:55:31.160Z,98.1
2022-12-31T01:00:31.175Z,98.1
2022-12-31T01:05:31.125Z,98.3
2022-12-31T01:10:31.151Z,98.5
2022-12-31T01:15:31.188Z,98.6
2022-12-31T01:20:31.143Z,98.5
2022-12-31T01:25:31.108Z,98.2
2022-12-31T01:30:31.102Z,98
2022-12-31T01:35:31.094Z,98
2022-12-31T01:40:31.083Z,97.7
2022-12-31T01:45:31.099Z,96.5
2022-12-31T01:50:31.088Z,96.4
2022-12-31T01:55:31.088Z,96.3
2022-12-31T02:00:31.080Z,96.3
2022-12-31T02:05:31.157Z,96.3
2022-12-31T02:10:31.127Z,96.3
2022-12-31T02:15:31.081Z,95.9
2022-12-31T02:20:31.097Z,95.9
2022-12-31T02:25:31.080Z,95.9
2022-12-31T02:30:31.117Z,95.9
2022-12-31T02:35:31.084Z,95.7
2022-12-31T02:40:31.057Z,95.3
2022-12-31T02:45:31.029Z,94.9
2022-12-31T02:50:31.050Z,94.4
2022-12-31T02:55:31.036Z,94.2
2022-12-31T03:00:31.112Z,94
2022-12-31T03:05:31.012Z,94
2022-12-31T03:10:31.003Z,93.7
2022-12-31T03:15:31.004Z,93.5
2022-12-31T03:20:30.999Z,93.2
2022-12-31T03:25:31.011Z,93
2022-12-31T03:30:30.978Z,92.7
2022-12-31T03:35:30.994Z,92.7
2022-12-31T03:40:30.987Z,92.3
2022-12-31T03:45:31.027Z,90.8
2022-12-31T03:50:30.969Z,89.9
2022-12-31T03:55:30.963Z,89.8
2022-12-31T04:00:30.942Z,89.8
2022-12-31T04:05:30.962Z,90
2022-12-31T04:10:30.961Z,90.3
2022-12-31T04:15:30.937Z,90.7
2022-12-31T04:20:30.959Z,91.1
2022-12-31T04:25:30.983Z,91.5
2022-12-31T04:30:30.928Z,91.8
2022-12-31T04:35:30.954Z,91.9
2022-12-31T04:40:30.910Z,91.6
2022-12-31T04:45:30.948Z,91.6
2022-12-31T04:50:30.902Z,92
2022-12-31T04:55:30.894Z,92.2
2022-12-31T05:00:30.944Z,92.1
2022-12-31T05:05:30.888Z,91.9
2022-12-31T05:10:30.892Z,92
2022-12-31T05:15:30.892Z,92
2022-12-31T05:20:30.869Z,91.5
2022-12-31T05:25:30.888Z,90.4
2022-12-31T05:30:30.919Z,87.7
2022-12-31T05:35:30.863Z,86.2
2022-12-31T05:40:30.877Z,86.2
2022-12-31T05:45:31.386Z,86
2022-12-31T05:50:30.855Z,86.3
2022-12-31T05:55:31.060Z,86.6
2022-12-31T06:00:30.850Z,88.3
2022-12-31T06:05:30.825Z,88.1
2022-12-31T06:15:30.945Z,90.3
2022-12-31T06:25:30.818Z,91.6
2022-12-31T06:30:30.834Z,92.1
2022-12-31T06:50:30.784Z,89.3
2022-12-31T06:55:30.795Z,89.1
2022-12-31T07:00:30.874Z,89.2
2022-12-31T07:20:30.744Z,86.8
2022-12-31T07:30:30.752Z,85.1
2022-12-31T07:35:34.911Z,84.1
2022-12-31T07:40:30.750Z,84.9
2022-12-31T07:45:30.768Z,85.8
2022-12-31T07:50:30.735Z,84.4
2022-12-31T07:55:30.758Z,83
2022-12-31T08:00:30.876Z,83
2022-12-31T08:05:30.732Z,82.3
2022-12-31T08:10:30.737Z,81.5
2022-12-31T08:15:30.956Z,81.2
2022-12-31T08:20:30.708Z,80.2
2022-12-31T08:25:30.698Z,80.1
2022-12-31T08:30:30.695Z,79.4
2022-12-31T08:35:30.694Z,79.6
2022-12-31T08:40:30.680Z,78.8
2022-12-31T08:45:30.679Z,80.9
2022-12-31T08:50:30.677Z,86.7
2022-12-31T08:55:30.693Z,82.8
2022-12-31T09:00:30.665Z,78.5
2022-12-31T09:05:30.668Z,76.5
2022-12-31T09:10:30.654Z,74.5
2022-12-31T09:15:30.660Z,72.5
2022-12-31T09:20:42.163Z,70.4
2022-12-31T09:25:30.649Z,68.5
2022-12-31T09:30:30.628Z,68.2
2022-12-31T09:35:30.615Z,71.7
2022-12-31T09:40:30.657Z,70.2
2022-12-31T09:45:30.681Z,75.4
2022-12-31T09:50:30.597Z,71.4
2022-12-31T09:55:30.586Z,66.7
2022-12-31T10:00:30.580Z,70.5
2022-12-31T10:05:30.597Z,70.1
2022-12-31T10:10:30.708Z,67.7
2022-12-31T10:15:30.579Z,66.4
2022-12-31T10:20:30.553Z,68.4
2022-12-31T10:25:37.747Z,67.8
2022-12-31T10:30:30.620Z,69.4
2022-12-31T10:35:30.531Z,68.1
2022-12-31T10:40:30.536Z,68
2022-12-31T10:45:30.540Z,67.4
2022-12-31T10:50:30.532Z,66.3
2022-12-31T10:55:30.522Z,65.3
2022-12-31T11:00:30.515Z,65.9
2022-12-31T11:05:30.510Z,66.2
2022-12-31T11:10:30.503Z,67.5
2022-12-31T11:15:30.532Z,68
2022-12-31T11:20:30.528Z,69.9
2022-12-31T11:25:30.515Z,70.3
2022-12-31T11:30:30.473Z,69.3
2022-12-31T11:35:30.475Z,69.4
2022-12-31T11:40:30.470Z,69.1
2022-12-31T11:45:30.468Z,70.3
2022-12-31T11:50:30.466Z,70.9
2022-12-31T11:55:30.479Z,71.6
2022-12-31T12:00:30.448Z,72.2
2022-12-31T12:05:30.466Z,72.7
2022-12-31T12:10:35.931Z,72.4
2022-12-31T12:15:30.417Z,72.2
2022-12-31T12:20:30.622Z,71.5
2022-12-31T12:25:30.408Z,71.5
2022-12-31T12:30:30.406Z,71.1
2022-12-31T12:35:30.405Z,71.7
2022-12-31T12:40:34.011Z,69.8
2022-12-31T12:45:30.394Z,70.8
2022-12-31T12:50:30.370Z,72
2022-12-31T12:55:30.384Z,72.7
2022-12-31T13:00:30.413Z,73.6
2022-12-31T13:05:30.360Z,72.6
2022-12-31T13:10:30.364Z,73
2022-12-31T13:15:30.409Z,73.5
2022-12-31T13:20:30.363Z,75.4
2022-12-31T13:25:30.359Z,74.9
2022-12-31T13:30:30.342Z,75.6
2022-12-31T13:35:30.338Z,75.4
2022-12-31T13:40:30.366Z,76.4
2022-12-31T13:45:30.369Z,78.3
2022-12-31T13:50:30.304Z,77.8
2022-12-31T13:55:30.321Z,79.3
2022-12-31T14:00:30.330Z,78.2
2022-12-31T14:05:30.303Z,79
2022-12-31T14:10:30.326Z,78.5
2022-12-31T14:15:30.293Z,79.6
2022-12-31T14:20:30.284Z,79.5
2022-12-31T14:25:30.286Z,80.6
2022-12-31T14:30:30.279Z,82.4
2022-12-31T14:35:30.266Z,82.3
2022-12-31T14:40:30.300Z,83
2022-12-31T14:45:30.302Z,84
2022-12-31T14:50:30.257Z,84.2
2022-12-31T14:55:30.234Z,84.9
2022-12-31T15:00:30.248Z,85.4
2022-12-31T15:05:30.233Z,83.5
2022-12-31T15:10:30.231Z,84.4
2022-12-31T15:15:30.262Z,86.6
2022-12-31T15:20:30.225Z,86.5
2022-12-31T15:25:33.990Z,86.8
2022-12-31T15:30:30.328Z,86.8
2022-12-31T15:35:30.197Z,86.7
2022-12-31T15:40:30.209Z,88.4
2022-12-31T15:45:30.186Z,88.8
2022-12-31T15:50:30.194Z,89.7
2022-12-31T15:55:30.241Z,90.7
2022-12-31T16:00:30.172Z,91.6
2022-12-31T16:05:30.179Z,92.2
2022-12-31T16:10:30.193Z,93
2022-12-31T16:15:30.230Z,93.4
2022-12-31T16:20:30.157Z,93.4
2022-12-31T16:25:31.835Z,93.5
2022-12-31T16:30:30.165Z,94.5
2022-12-31T16:35:30.150Z,95.6
2022-12-31T16:40:30.140Z,95.2
2022-12-31T16:45:30.140Z,96.1
2022-12-31T16:50:30.174Z,96
2022-12-31T16:55:30.130Z,96.9
2022-12-31T17:00:30.127Z,97.1
2022-12-31T17:05:30.129Z,97.4
2022-12-31T17:10:30.141Z,97.5
2022-12-31T17:15:30.099Z,97.9
2022-12-31T17:20:30.124Z,98.2
2022-12-31T17:25:30.115Z,98
2022-12-31T17:30:30.085Z,98.6
2022-12-31T17:35:30.123Z,98.7
2022-12-31T17:40:53.239Z,98.8
2022-12-31T17:45:30.077Z,99
2022-12-31T17:50:30.078Z,98.7
2022-12-31T17:55:30.083Z,99.4
2022-12-31T18:00:30.116Z,98.9
2022-12-31T18:05:30.064Z,98.9
2022-12-31T18:10:30.062Z,99.1
2022-12-31T18:15:30.049Z,99
2022-12-31T18:20:30.071Z,99.3
2022-12-31T18:25:30.091Z,99.5
2022-12-31T18:30:30.068Z,99.5
2022-12-31T18:40:30.059Z,99.7
2022-12-31T18:45:30.048Z,99.8
2022-12-31T18:50:30.026Z,99.6
2022-12-31T18:55:30.035Z,99.9
2022-12-31T19:00:30.026Z,100
2022-12-31T19:05:30.025Z,99.9
2022-12-31T19:10:30.022Z,99.8
2022-12-31T19:15:30.045Z,99.9
2022-12-31T19:20:30.039Z,99.9
2022-12-31T19:25:29.992Z,99.8
2022-12-31T19:30:29.999Z,99.5
2022-12-31T19:35:30.006Z,98.7
2022-12-31T19:40:29.999Z,97.4
2022-12-31T19:45:30.057Z,96.1
2022-12-31T19:50:29.982Z,95.3
2022-12-31T19:55:29.980Z,94.9
2022-12-31T20:00:30.113Z,93.7
2022-12-31T20:05:29.976Z,93.6
2022-12-31T20:10:29.969Z,92.9
2022-12-31T20:15:30.073Z,92.6
2022-12-31T20:20:29.964Z,91.1
2022-12-31T20:25:29.947Z,90.9
2022-12-31T20:30:29.979Z,90.6
2022-12-31T20:35:29.954Z,88.7
2022-12-31T20:40:29.963Z,86.9
2022-12-31T20:45:29.924Z,85.8
2022-12-31T20:50:29.976Z,85.1
2022-12-31T20:55:29.924Z,83.4
2022-12-31T21:00:29.938Z,82.8
2022-12-31T21:05:30.118Z,82.4
2022-12-31T21:10:29.930Z,83.9
2022-12-31T21:15:29.927Z,84.7
2022-12-31T21:20:29.906Z,85.6
2022-12-31T21:25:29.897Z,86.5
2022-12-31T21:45:29.901Z,88.6
2022-12-31T21:50:29.877Z,89
2022-12-31T22:05:29.856Z,91.1
2022-12-31T22:10:31.649Z,92.3
2022-12-31T22:20:29.883Z,92.7
2022-12-31T22:25:29.870Z,92.6
2022-12-31T22:30:29.853Z,92.3
2022-12-31T22:35:29.869Z,92.4
2022-12-31T22:40:29.839Z,93.1
2022-12-31T22:45:29.835Z,93.2
2022-12-31T22:50:29.838Z,93.8
2022-12-31T22:55:29.833Z,94
2022-12-31T23:00:29.895Z,93.9
2022-12-31T23:05:29.835Z,94.1
2022-12-31T23:10:29.832Z,94.3
2022-12-31T23:15:29.837Z,94.3
2022-12-31T23:20:29.835Z,94.4
2022-12-31T23:25:29.804Z,94.5
2022-12-31T23:30:29.820Z,94.6
2022-12-31T23:35:29.897Z,94.5
2022-12-31T23:40:29.786Z,94.3
2022-12-31T23:45:33.217Z,94.4
2022-12-31T23:50:29.799Z,94.5
2022-12-31T23:55:29.796Z,93.9
